sensor_id;sensor_type;location;lat;lon;timestamp;temperature;humidity
58519;DHT22;44310;48.106;12.008;2023-06-26T00:01:41;21.30;70.30
58519;DHT22;44310;48.106;12.008;2023-06-26T00:04:09;21.30;70.30
58519;DHT22;44310;48.106;12.008;2023-06-26T00:06:41;21.30;70.50
58519;DHT22;44310;48.106;12.008;2023-06-26T00:09:09;21.30;70.60
58519;DHT22;44310;48.106;12.008;2023-06-26T00:11:37;21.30;70.60
58519;DHT22;44310;48.106;12.008;2023-06-26T00:14:04;21.30;70.60
58519;DHT22;44310;48.106;12.008;2023-06-26T00:16:31;21.30;70.50
58519;DHT22;44310;48.106;12.008;2023-06-26T00:18:58;21.30;70.40
58519;DHT22;44310;48.106;12.008;2023-06-26T00:21:26;21.30;71.30
58519;DHT22;44310;48.106;12.008;2023-06-26T00:23:55;21.40;71.40
58519;DHT22;44310;48.106;12.008;2023-06-26T00:26:22;21.40;71.20
58519;DHT22;44310;48.106;12.008;2023-06-26T00:28:51;21.40;70.90
58519;DHT22;44310;48.106;12.008;2023-06-26T00:31:18;21.40;71.10
58519;DHT22;44310;48.106;12.008;2023-06-26T00:33:45;21.40;70.70
58519;DHT22;44310;48.106;12.008;2023-06-26T00:36:12;21.40;70.40
58519;DHT22;44310;48.106;12.008;2023-06-26T00:38:40;21.30;70.20
58519;DHT22;44310;48.106;12.008;2023-06-26T00:41:07;21.30;70.20
58519;DHT22;44310;48.106;12.008;2023-06-26T00:43:40;21.30;70.20
58519;DHT22;44310;48.106;12.008;2023-06-26T00:46:13;21.40;70.10
58519;DHT22;44310;48.106;12.008;2023-06-26T00:48:42;21.30;70.00
58519;DHT22;44310;48.106;12.008;2023-06-26T00:51:12;21.30;69.80
58519;DHT22;44310;48.106;12.008;2023-06-26T00:53:40;21.30;69.80
58519;DHT22;44310;48.106;12.008;2023-06-26T00:56:08;21.50;69.80
58519;DHT22;44310;48.106;12.008;2023-06-26T00:58:35;21.30;70.00
58519;DHT22;44310;48.106;12.008;2023-06-26T01:01:02;21.30;70.70
58519;DHT22;44310;48.106;12.008;2023-06-26T01:03:30;21.30;70.60
58519;DHT22;44310;48.106;12.008;2023-06-26T01:05:58;21.40;70.60
58519;DHT22;44310;48.106;12.008;2023-06-26T01:08:27;21.40;70.40
58519;DHT22;44310;48.106;12.008;2023-06-26T01:10:54;21.40;70.30
58519;DHT22;44310;48.106;12.008;2023-06-26T01:13:22;21.40;70.20
58519;DHT22;44310;48.106;12.008;2023-06-26T01:15:50;21.40;70.20
58519;DHT22;44310;48.106;12.008;2023-06-26T01:18:17;21.40;70.10
58519;DHT22;44310;48.106;12.008;2023-06-26T01:20:44;21.40;69.90
58519;DHT22;44310;48.106;12.008;2023-06-26T01:26:22;21.40;69.80
58519;DHT22;44310;48.106;12.008;2023-06-26T01:28:51;21.40;69.70
58519;DHT22;44310;48.106;12.008;2023-06-26T01:31:19;21.40;69.70
58519;DHT22;44310;48.106;12.008;2023-06-26T01:33:47;21.40;69.50
58519;DHT22;44310;48.106;12.008;2023-06-26T01:36:14;21.40;70.40
58519;DHT22;44310;48.106;12.008;2023-06-26T01:38:41;21.40;69.70
58519;DHT22;44310;48.106;12.008;2023-06-26T01:41:09;21.30;69.60
58519;DHT22;44310;48.106;12.008;2023-06-26T01:46:42;21.30;69.50
58519;DHT22;44310;48.106;12.008;2023-06-26T01:49:38;21.30;69.30
58519;DHT22;44310;48.106;12.008;2023-06-26T01:52:12;21.30;69.70
58519;DHT22;44310;48.106;12.008;2023-06-26T01:57:20;21.30;70.00
58519;DHT22;44310;48.106;12.008;2023-06-26T01:59:51;21.30;70.40
58519;DHT22;44310;48.106;12.008;2023-06-26T02:02:18;21.30;70.30
58519;DHT22;44310;48.106;12.008;2023-06-26T02:04:46;21.80;70.60
58519;DHT22;44310;48.106;12.008;2023-06-26T02:07:15;21.40;70.30
58519;DHT22;44310;48.106;12.008;2023-06-26T02:09:42;21.40;70.20
58519;DHT22;44310;48.106;12.008;2023-06-26T02:12:10;21.40;70.40
58519;DHT22;44310;48.106;12.008;2023-06-26T02:14:37;21.40;70.50
58519;DHT22;44310;48.106;12.008;2023-06-26T02:17:05;21.40;70.40
58519;DHT22;44310;48.106;12.008;2023-06-26T02:19:32;21.40;70.30
58519;DHT22;44310;48.106;12.008;2023-06-26T02:21:59;21.40;70.20
58519;DHT22;44310;48.106;12.008;2023-06-26T02:24:26;21.40;70.30
58519;DHT22;44310;48.106;12.008;2023-06-26T02:26:56;21.40;70.20
58519;DHT22;44310;48.106;12.008;2023-06-26T02:29:24;21.40;70.20
58519;DHT22;44310;48.106;12.008;2023-06-26T02:31:51;21.40;70.00
58519;DHT22;44310;48.106;12.008;2023-06-26T02:34:18;21.40;70.00
58519;DHT22;44310;48.106;12.008;2023-06-26T02:36:46;21.40;70.00
58519;DHT22;44310;48.106;12.008;2023-06-26T02:39:13;21.40;70.00
58519;DHT22;44310;48.106;12.008;2023-06-26T02:41:43;21.30;69.90
58519;DHT22;44310;48.106;12.008;2023-06-26T02:44:11;21.40;69.80
58519;DHT22;44310;48.106;12.008;2023-06-26T02:46:39;21.40;69.60
58519;DHT22;44310;48.106;12.008;2023-06-26T02:49:07;21.60;69.30
58519;DHT22;44310;48.106;12.008;2023-06-26T02:51:34;21.30;69.00
58519;DHT22;44310;48.106;12.008;2023-06-26T02:54:01;21.30;69.00
58519;DHT22;44310;48.106;12.008;2023-06-26T02:56:29;21.30;69.20
58519;DHT22;44310;48.106;12.008;2023-06-26T02:58:56;21.30;69.00
58519;DHT22;44310;48.106;12.008;2023-06-26T03:01:24;21.30;68.90
58519;DHT22;44310;48.106;12.008;2023-06-26T03:03:51;21.30;68.80
58519;DHT22;44310;48.106;12.008;2023-06-26T03:06:18;21.30;68.90
58519;DHT22;44310;48.106;12.008;2023-06-26T03:08:45;21.20;68.80
58519;DHT22;44310;48.106;12.008;2023-06-26T03:11:13;21.30;68.70
58519;DHT22;44310;48.106;12.008;2023-06-26T03:13:40;21.30;68.70
58519;DHT22;44310;48.106;12.008;2023-06-26T03:16:07;20.80;68.50
58519;DHT22;44310;48.106;12.008;2023-06-26T03:18:34;21.30;68.70
58519;DHT22;44310;48.106;12.008;2023-06-26T03:21:01;21.80;68.80
58519;DHT22;44310;48.106;12.008;2023-06-26T03:23:29;21.30;68.80
58519;DHT22;44310;48.106;12.008;2023-06-26T03:25:56;21.60;68.90
58519;DHT22;44310;48.106;12.008;2023-06-26T03:28:23;21.30;68.90
58519;DHT22;44310;48.106;12.008;2023-06-26T03:30:50;21.40;69.10
58519;DHT22;44310;48.106;12.008;2023-06-26T03:33:17;21.40;69.20
58519;DHT22;44310;48.106;12.008;2023-06-26T03:35:45;21.40;69.60
58519;DHT22;44310;48.106;12.008;2023-06-26T03:38:12;21.40;69.10
58519;DHT22;44310;48.106;12.008;2023-06-26T03:40:39;21.40;69.20
58519;DHT22;44310;48.106;12.008;2023-06-26T03:43:07;21.40;69.20
58519;DHT22;44310;48.106;12.008;2023-06-26T03:45:34;21.40;69.10
58519;DHT22;44310;48.106;12.008;2023-06-26T03:48:01;21.40;69.20
58519;DHT22;44310;48.106;12.008;2023-06-26T03:50:28;21.40;69.30
58519;DHT22;44310;48.106;12.008;2023-06-26T03:52:55;21.40;69.20
58519;DHT22;44310;48.106;12.008;2023-06-26T03:55:22;21.40;69.10
58519;DHT22;44310;48.106;12.008;2023-06-26T03:57:50;21.30;69.20
58519;DHT22;44310;48.106;12.008;2023-06-26T04:00:17;21.30;69.40
58519;DHT22;44310;48.106;12.008;2023-06-26T04:02:45;21.30;69.30
58519;DHT22;44310;48.106;12.008;2023-06-26T04:05:12;21.30;69.10
58519;DHT22;44310;48.106;12.008;2023-06-26T04:07:39;21.30;69.00
58519;DHT22;44310;48.106;12.008;2023-06-26T04:10:07;21.30;68.80
58519;DHT22;44310;48.106;12.008;2023-06-26T04:12:34;21.20;68.70
58519;DHT22;44310;48.106;12.008;2023-06-26T04:15:01;21.30;68.60
58519;DHT22;44310;48.106;12.008;2023-06-26T04:17:29;21.30;68.80
58519;DHT22;44310;48.106;12.008;2023-06-26T04:19:56;21.20;68.60
58519;DHT22;44310;48.106;12.008;2023-06-26T04:22:23;21.30;69.30
58519;DHT22;44310;48.106;12.008;2023-06-26T04:24:52;21.30;69.70
58519;DHT22;44310;48.106;12.008;2023-06-26T04:27:19;21.30;69.50
58519;DHT22;44310;48.106;12.008;2023-06-26T04:29:46;21.40;69.50
58519;DHT22;44310;48.106;12.008;2023-06-26T04:32:13;21.30;69.30
58519;DHT22;44310;48.106;12.008;2023-06-26T04:34:40;21.40;69.20
58519;DHT22;44310;48.106;12.008;2023-06-26T04:37:10;21.30;69.20
58519;DHT22;44310;48.106;12.008;2023-06-26T04:39:37;21.30;69.30
58519;DHT22;44310;48.106;12.008;2023-06-26T04:42:05;21.30;69.40
58519;DHT22;44310;48.106;12.008;2023-06-26T04:44:33;21.40;69.30
58519;DHT22;44310;48.106;12.008;2023-06-26T04:47:01;21.30;69.50
58519;DHT22;44310;48.106;12.008;2023-06-26T04:49:28;21.40;69.70
58519;DHT22;44310;48.106;12.008;2023-06-26T04:51:55;21.30;69.80
58519;DHT22;44310;48.106;12.008;2023-06-26T04:54:23;21.60;70.00
58519;DHT22;44310;48.106;12.008;2023-06-26T04:56:50;21.30;70.00
58519;DHT22;44310;48.106;12.008;2023-06-26T04:59:17;21.40;70.30
58519;DHT22;44310;48.106;12.008;2023-06-26T05:01:44;21.40;70.30
58519;DHT22;44310;48.106;12.008;2023-06-26T05:04:15;21.30;70.30
58519;DHT22;44310;48.106;12.008;2023-06-26T05:06:43;21.30;70.60
58519;DHT22;44310;48.106;12.008;2023-06-26T05:09:10;21.40;70.90
58519;DHT22;44310;48.106;12.008;2023-06-26T05:11:38;21.40;70.90
58519;DHT22;44310;48.106;12.008;2023-06-26T05:14:05;21.10;70.80
58519;DHT22;44310;48.106;12.008;2023-06-26T05:16:36;21.40;71.00
58519;DHT22;44310;48.106;12.008;2023-06-26T05:19:03;21.40;71.20
58519;DHT22;44310;48.106;12.008;2023-06-26T05:21:30;21.40;71.30
58519;DHT22;44310;48.106;12.008;2023-06-26T05:23:57;21.40;71.40
58519;DHT22;44310;48.106;12.008;2023-06-26T05:26:25;21.50;71.50
58519;DHT22;44310;48.106;12.008;2023-06-26T05:28:53;21.40;71.50
58519;DHT22;44310;48.106;12.008;2023-06-26T05:31:21;21.40;71.70
58519;DHT22;44310;48.106;12.008;2023-06-26T05:33:48;21.40;71.70
58519;DHT22;44310;48.106;12.008;2023-06-26T05:36:16;21.40;71.80
58519;DHT22;44310;48.106;12.008;2023-06-26T05:38:45;21.40;72.00
58519;DHT22;44310;48.106;12.008;2023-06-26T05:41:12;21.40;72.10
58519;DHT22;44310;48.106;12.008;2023-06-26T05:43:39;21.40;72.10
58519;DHT22;44310;48.106;12.008;2023-06-26T05:46:06;21.40;72.10
58519;DHT22;44310;48.106;12.008;2023-06-26T05:48:34;21.40;72.00
58519;DHT22;44310;48.106;12.008;2023-06-26T05:51:01;21.40;72.00
58519;DHT22;44310;48.106;12.008;2023-06-26T05:53:29;21.40;72.00
58519;DHT22;44310;48.106;12.008;2023-06-26T05:55:57;21.50;72.00
58519;DHT22;44310;48.106;12.008;2023-06-26T05:58:26;21.50;71.90
58519;DHT22;44310;48.106;12.008;2023-06-26T06:00:54;21.50;72.10
58519;DHT22;44310;48.106;12.008;2023-06-26T06:03:22;21.50;72.20
58519;DHT22;44310;48.106;12.008;2023-06-26T06:05:49;21.30;72.20
58519;DHT22;44310;48.106;12.008;2023-06-26T06:08:17;21.50;73.00
58519;DHT22;44310;48.106;12.008;2023-06-26T06:10:44;21.40;72.40
58519;DHT22;44310;48.106;12.008;2023-06-26T06:13:11;21.40;72.50
58519;DHT22;44310;48.106;12.008;2023-06-26T06:15:38;21.50;72.60
58519;DHT22;44310;48.106;12.008;2023-06-26T06:18:05;21.90;72.90
58519;DHT22;44310;48.106;12.008;2023-06-26T06:20:33;21.50;72.70
58519;DHT22;44310;48.106;12.008;2023-06-26T06:23:00;21.50;72.90
58519;DHT22;44310;48.106;12.008;2023-06-26T06:25:27;21.50;72.90
58519;DHT22;44310;48.106;12.008;2023-06-26T06:27:54;21.70;73.20
58519;DHT22;44310;48.106;12.008;2023-06-26T06:30:21;21.50;73.30
58519;DHT22;44310;48.106;12.008;2023-06-26T06:33:05;21.50;72.80
58519;DHT22;44310;48.106;12.008;2023-06-26T06:35:32;21.50;73.00
58519;DHT22;44310;48.106;12.008;2023-06-26T06:37:59;21.40;74.00
58519;DHT22;44310;48.106;12.008;2023-06-26T06:40:26;21.40;74.10
58519;DHT22;44310;48.106;12.008;2023-06-26T06:42:54;21.40;73.90
58519;DHT22;44310;48.106;12.008;2023-06-26T06:45:21;21.40;74.10
58519;DHT22;44310;48.106;12.008;2023-06-26T06:47:48;21.40;74.40
58519;DHT22;44310;48.106;12.008;2023-06-26T06:50:15;21.50;74.70
58519;DHT22;44310;48.106;12.008;2023-06-26T06:52:43;21.50;75.00
58519;DHT22;44310;48.106;12.008;2023-06-26T06:55:10;21.50;75.10
58519;DHT22;44310;48.106;12.008;2023-06-26T06:57:39;21.60;75.20
58519;DHT22;44310;48.106;12.008;2023-06-26T07:00:09;21.90;75.60
58519;DHT22;44310;48.106;12.008;2023-06-26T07:02:38;21.60;75.50
58519;DHT22;44310;48.106;12.008;2023-06-26T07:05:06;21.60;75.60
58519;DHT22;44310;48.106;12.008;2023-06-26T07:07:36;21.60;75.80
58519;DHT22;44310;48.106;12.008;2023-06-26T07:10:10;21.60;75.80
58519;DHT22;44310;48.106;12.008;2023-06-26T07:12:37;21.60;75.90
58519;DHT22;44310;48.106;12.008;2023-06-26T07:15:05;21.60;75.90
58519;DHT22;44310;48.106;12.008;2023-06-26T07:17:33;21.60;76.10
58519;DHT22;44310;48.106;12.008;2023-06-26T07:20:02;21.60;76.10
58519;DHT22;44310;48.106;12.008;2023-06-26T07:22:33;21.60;76.10
58519;DHT22;44310;48.106;12.008;2023-06-26T07:25:01;21.60;76.20
58519;DHT22;44310;48.106;12.008;2023-06-26T07:27:28;21.60;76.20
58519;DHT22;44310;48.106;12.008;2023-06-26T07:29:55;21.60;76.30
58519;DHT22;44310;48.106;12.008;2023-06-26T07:32:22;21.60;76.30
58519;DHT22;44310;48.106;12.008;2023-06-26T07:34:49;21.60;77.00
58519;DHT22;44310;48.106;12.008;2023-06-26T07:37:16;21.60;76.30
58519;DHT22;44310;48.106;12.008;2023-06-26T07:39:44;21.60;76.30
58519;DHT22;44310;48.106;12.008;2023-06-26T07:42:11;21.70;76.40
58519;DHT22;44310;48.106;12.008;2023-06-26T07:44:38;21.70;76.30
58519;DHT22;44310;48.106;12.008;2023-06-26T07:47:05;21.60;76.10
58519;DHT22;44310;48.106;12.008;2023-06-26T07:49:33;21.70;76.20
58519;DHT22;44310;48.106;12.008;2023-06-26T07:52:00;21.70;76.20
58519;DHT22;44310;48.106;12.008;2023-06-26T07:54:27;21.60;76.30
58519;DHT22;44310;48.106;12.008;2023-06-26T07:56:59;21.70;76.30
58519;DHT22;44310;48.106;12.008;2023-06-26T07:59:28;21.70;77.00
58519;DHT22;44310;48.106;12.008;2023-06-26T08:01:57;21.70;76.30
58519;DHT22;44310;48.106;12.008;2023-06-26T08:04:26;21.70;76.30
58519;DHT22;44310;48.106;12.008;2023-06-26T08:06:55;21.70;76.50
58519;DHT22;44310;48.106;12.008;2023-06-26T08:09:25;21.60;76.40
58519;DHT22;44310;48.106;12.008;2023-06-26T08:11:52;21.50;76.50
58519;DHT22;44310;48.106;12.008;2023-06-26T08:14:20;21.70;76.80
58519;DHT22;44310;48.106;12.008;2023-06-26T08:16:47;20.80;76.40
58519;DHT22;44310;48.106;12.008;2023-06-26T08:19:16;21.70;76.90
58519;DHT22;44310;48.106;12.008;2023-06-26T08:21:45;21.70;77.00
58519;DHT22;44310;48.106;12.008;2023-06-26T08:24:13;21.70;77.20
58519;DHT22;44310;48.106;12.008;2023-06-26T08:26:40;21.70;77.30
58519;DHT22;44310;48.106;12.008;2023-06-26T08:29:07;21.60;77.30
58519;DHT22;44310;48.106;12.008;2023-06-26T08:31:39;21.70;77.50
58519;DHT22;44310;48.106;12.008;2023-06-26T08:34:08;21.70;77.70
58519;DHT22;44310;48.106;12.008;2023-06-26T08:36:35;21.70;77.70
58519;DHT22;44310;48.106;12.008;2023-06-26T08:39:02;21.40;77.50
58519;DHT22;44310;48.106;12.008;2023-06-26T08:41:31;21.70;77.20
58519;DHT22;44310;48.106;12.008;2023-06-26T08:43:59;21.60;71.30
58519;DHT22;44310;48.106;12.008;2023-06-26T08:46:26;21.70;70.30
58519;DHT22;44310;48.106;12.008;2023-06-26T08:48:56;21.70;70.90
58519;DHT22;44310;48.106;12.008;2023-06-26T08:51:25;21.80;69.60
58519;DHT22;44310;48.106;12.008;2023-06-26T08:53:59;21.70;68.30
58519;DHT22;44310;48.106;12.008;2023-06-26T08:56:39;21.80;70.20
58519;DHT22;44310;48.106;12.008;2023-06-26T08:59:07;21.80;68.00
58519;DHT22;44310;48.106;12.008;2023-06-26T09:01:38;21.90;66.80
58519;DHT22;44310;48.106;12.008;2023-06-26T09:04:05;22.00;67.90
58519;DHT22;44310;48.106;12.008;2023-06-26T09:06:34;22.40;67.10
58519;DHT22;44310;48.106;12.008;2023-06-26T09:09:01;22.10;67.70
58519;DHT22;44310;48.106;12.008;2023-06-26T09:11:28;22.20;67.90
58519;DHT22;44310;48.106;12.008;2023-06-26T09:13:55;22.20;66.60
58519;DHT22;44310;48.106;12.008;2023-06-26T09:16:26;22.20;68.40
58519;DHT22;44310;48.106;12.008;2023-06-26T09:18:56;22.20;66.90
58519;DHT22;44310;48.106;12.008;2023-06-26T09:21:23;22.20;66.70
58519;DHT22;44310;48.106;12.008;2023-06-26T09:23:52;22.20;66.10
58519;DHT22;44310;48.106;12.008;2023-06-26T09:26:21;22.20;65.80
58519;DHT22;44310;48.106;12.008;2023-06-26T09:28:49;22.20;66.90
58519;DHT22;44310;48.106;12.008;2023-06-26T09:31:17;22.30;65.10
58519;DHT22;44310;48.106;12.008;2023-06-26T09:34:01;22.40;66.40
58519;DHT22;44310;48.106;12.008;2023-06-26T09:36:30;22.20;66.50
58519;DHT22;44310;48.106;12.008;2023-06-26T09:39:06;22.10;67.20
58519;DHT22;44310;48.106;12.008;2023-06-26T09:41:38;22.10;67.60
58519;DHT22;44310;48.106;12.008;2023-06-26T09:44:06;21.90;68.00
58519;DHT22;44310;48.106;12.008;2023-06-26T09:46:34;21.90;68.60
58519;DHT22;44310;48.106;12.008;2023-06-26T09:49:08;21.80;69.10
58519;DHT22;44310;48.106;12.008;2023-06-26T09:51:37;21.80;69.70
58519;DHT22;44310;48.106;12.008;2023-06-26T09:54:05;21.80;70.40
58519;DHT22;44310;48.106;12.008;2023-06-26T09:56:33;21.70;70.90
58519;DHT22;44310;48.106;12.008;2023-06-26T09:59:03;21.70;71.30
58519;DHT22;44310;48.106;12.008;2023-06-26T10:01:32;21.70;71.40
58519;DHT22;44310;48.106;12.008;2023-06-26T10:03:59;21.70;71.40
58519;DHT22;44310;48.106;12.008;2023-06-26T10:06:36;21.70;71.40
58519;DHT22;44310;48.106;12.008;2023-06-26T10:09:04;21.70;71.40
58519;DHT22;44310;48.106;12.008;2023-06-26T10:11:41;21.70;70.80
58519;DHT22;44310;48.106;12.008;2023-06-26T10:14:11;21.60;70.40
58519;DHT22;44310;48.106;12.008;2023-06-26T10:16:44;21.60;71.10
58519;DHT22;44310;48.106;12.008;2023-06-26T10:19:14;21.60;71.70
58519;DHT22;44310;48.106;12.008;2023-06-26T10:21:43;21.60;71.80
58519;DHT22;44310;48.106;12.008;2023-06-26T10:24:12;21.60;71.60
58519;DHT22;44310;48.106;12.008;2023-06-26T10:26:44;21.60;71.60
58519;DHT22;44310;48.106;12.008;2023-06-26T10:29:13;21.60;71.00
58519;DHT22;44310;48.106;12.008;2023-06-26T10:31:45;21.60;71.20
58519;DHT22;44310;48.106;12.008;2023-06-26T10:34:13;21.60;70.90
58519;DHT22;44310;48.106;12.008;2023-06-26T10:36:41;21.60;70.60
58519;DHT22;44310;48.106;12.008;2023-06-26T10:39:08;21.60;70.10
58519;DHT22;44310;48.106;12.008;2023-06-26T10:41:40;21.70;70.20
58519;DHT22;44310;48.106;12.008;2023-06-26T10:44:24;21.70;70.10
58519;DHT22;44310;48.106;12.008;2023-06-26T10:46:55;21.80;68.70
58519;DHT22;44310;48.106;12.008;2023-06-26T10:49:28;21.70;68.60
58519;DHT22;44310;48.106;12.008;2023-06-26T10:52:01;21.80;68.90
58519;DHT22;44310;48.106;12.008;2023-06-26T10:54:32;21.80;68.90
58519;DHT22;44310;48.106;12.008;2023-06-26T10:57:01;21.80;69.00
58519;DHT22;44310;48.106;12.008;2023-06-26T10:59:32;21.80;68.80
58519;DHT22;44310;48.106;12.008;2023-06-26T11:02:09;21.70;67.70
58519;DHT22;44310;48.106;12.008;2023-06-26T11:04:50;21.80;68.30
58519;DHT22;44310;48.106;12.008;2023-06-26T11:10:00;21.70;69.80
58519;DHT22;44310;48.106;12.008;2023-06-26T11:12:41;21.80;69.90
58519;DHT22;44310;48.106;12.008;2023-06-26T11:15:13;21.60;69.20
58519;DHT22;44310;48.106;12.008;2023-06-26T11:17:42;21.80;69.50
58519;DHT22;44310;48.106;12.008;2023-06-26T11:20:13;21.70;70.00
58519;DHT22;44310;48.106;12.008;2023-06-26T11:22:42;21.40;69.90
58519;DHT22;44310;48.106;12.008;2023-06-26T11:25:10;21.80;70.10
58519;DHT22;44310;48.106;12.008;2023-06-26T11:27:42;21.80;69.80
58519;DHT22;44310;48.106;12.008;2023-06-26T11:30:11;21.70;70.10
58519;DHT22;44310;48.106;12.008;2023-06-26T11:32:49;21.90;69.60
58519;DHT22;44310;48.106;12.008;2023-06-26T11:35:23;22.00;69.40
58519;DHT22;44310;48.106;12.008;2023-06-26T11:37:58;22.10;68.60
58519;DHT22;44310;48.106;12.008;2023-06-26T11:40:33;22.10;68.60
58519;DHT22;44310;48.106;12.008;2023-06-26T11:43:01;22.10;68.70
58519;DHT22;44310;48.106;12.008;2023-06-26T11:45:33;22.10;68.90
58519;DHT22;44310;48.106;12.008;2023-06-26T11:48:01;22.00;68.50
58519;DHT22;44310;48.106;12.008;2023-06-26T11:50:28;22.10;68.00
58519;DHT22;44310;48.106;12.008;2023-06-26T11:52:59;22.10;67.20
58519;DHT22;44310;48.106;12.008;2023-06-26T11:55:40;22.20;67.50
58519;DHT22;44310;48.106;12.008;2023-06-26T11:58:08;22.20;68.40
58519;DHT22;44310;48.106;12.008;2023-06-26T12:00:35;22.20;68.10
58519;DHT22;44310;48.106;12.008;2023-06-26T12:03:07;22.10;67.90
58519;DHT22;44310;48.106;12.008;2023-06-26T12:05:35;22.10;67.80
58519;DHT22;44310;48.106;12.008;2023-06-26T12:08:04;22.10;68.00
58519;DHT22;44310;48.106;12.008;2023-06-26T12:10:33;22.10;68.30
58519;DHT22;44310;48.106;12.008;2023-06-26T12:13:01;22.00;68.60
58519;DHT22;44310;48.106;12.008;2023-06-26T12:15:28;22.00;68.10
58519;DHT22;44310;48.106;12.008;2023-06-26T12:17:56;21.90;66.90
58519;DHT22;44310;48.106;12.008;2023-06-26T12:20:23;22.00;67.60
58519;DHT22;44310;48.106;12.008;2023-06-26T12:22:52;22.00;67.10
58519;DHT22;44310;48.106;12.008;2023-06-26T12:25:24;22.00;67.20
58519;DHT22;44310;48.106;12.008;2023-06-26T12:27:51;22.00;67.40
58519;DHT22;44310;48.106;12.008;2023-06-26T12:30:18;22.00;67.60
58519;DHT22;44310;48.106;12.008;2023-06-26T12:32:45;21.90;67.90
58519;DHT22;44310;48.106;12.008;2023-06-26T12:35:16;21.80;68.30
58519;DHT22;44310;48.106;12.008;2023-06-26T12:37:43;22.00;68.10
58519;DHT22;44310;48.106;12.008;2023-06-26T12:40:19;22.00;67.60
58519;DHT22;44310;48.106;12.008;2023-06-26T12:42:49;21.90;67.70
58519;DHT22;44310;48.106;12.008;2023-06-26T12:45:16;22.00;68.10
58519;DHT22;44310;48.106;12.008;2023-06-26T12:47:46;21.90;68.20
58519;DHT22;44310;48.106;12.008;2023-06-26T12:50:14;21.90;68.70
58519;DHT22;44310;48.106;12.008;2023-06-26T12:52:41;21.90;68.90
58519;DHT22;44310;48.106;12.008;2023-06-26T12:55:08;22.10;68.60
58519;DHT22;44310;48.106;12.008;2023-06-26T12:57:36;22.20;68.00
58519;DHT22;44310;48.106;12.008;2023-06-26T13:00:03;22.20;68.60
58519;DHT22;44310;48.106;12.008;2023-06-26T13:02:30;22.30;67.90
58519;DHT22;44310;48.106;12.008;2023-06-26T13:04:58;22.20;67.30
58519;DHT22;44310;48.106;12.008;2023-06-26T13:07:25;22.30;66.70
58519;DHT22;44310;48.106;12.008;2023-06-26T13:09:52;22.40;67.20
58519;DHT22;44310;48.106;12.008;2023-06-26T13:12:20;22.90;64.80
58519;DHT22;44310;48.106;12.008;2023-06-26T13:14:47;23.40;62.80
58519;DHT22;44310;48.106;12.008;2023-06-26T13:17:15;23.40;63.00
58519;DHT22;44310;48.106;12.008;2023-06-26T13:19:42;23.10;63.50
58519;DHT22;44310;48.106;12.008;2023-06-26T13:22:10;22.90;63.90
58519;DHT22;44310;48.106;12.008;2023-06-26T13:24:37;22.80;66.30
58519;DHT22;44310;48.106;12.008;2023-06-26T13:27:05;22.80;68.30
58519;DHT22;44310;48.106;12.008;2023-06-26T13:29:32;22.70;69.70
58519;DHT22;44310;48.106;12.008;2023-06-26T13:31:59;22.70;71.40
58519;DHT22;44310;48.106;12.008;2023-06-26T13:34:27;22.70;72.90
58519;DHT22;44310;48.106;12.008;2023-06-26T13:36:56;22.60;73.60
58519;DHT22;44310;48.106;12.008;2023-06-26T13:39:23;22.50;74.40
58519;DHT22;44310;48.106;12.008;2023-06-26T13:41:51;22.50;73.10
58519;DHT22;44310;48.106;12.008;2023-06-26T13:44:18;22.50;74.20
58519;DHT22;44310;48.106;12.008;2023-06-26T13:47:05;22.50;74.80
58519;DHT22;44310;48.106;12.008;2023-06-26T13:49:35;22.40;71.70
58519;DHT22;44310;48.106;12.008;2023-06-26T13:52:02;22.40;71.30
58519;DHT22;44310;48.106;12.008;2023-06-26T13:54:30;22.40;70.50
58519;DHT22;44310;48.106;12.008;2023-06-26T13:56:57;22.00;68.20
58519;DHT22;44310;48.106;12.008;2023-06-26T13:59:24;22.40;69.30
58519;DHT22;44310;48.106;12.008;2023-06-26T14:01:52;22.50;68.10
58519;DHT22;44310;48.106;12.008;2023-06-26T14:04:19;22.50;66.70
58519;DHT22;44310;48.106;12.008;2023-06-26T14:06:48;22.50;66.20
58519;DHT22;44310;48.106;12.008;2023-06-26T14:09:15;22.60;66.40
58519;DHT22;44310;48.106;12.008;2023-06-26T14:11:43;22.60;69.20
58519;DHT22;44310;48.106;12.008;2023-06-26T14:14:11;22.70;72.60
58519;DHT22;44310;48.106;12.008;2023-06-26T14:16:38;23.00;68.00
58519;DHT22;44310;48.106;12.008;2023-06-26T14:19:07;22.60;66.50
58519;DHT22;44310;48.106;12.008;2023-06-26T14:21:34;22.60;66.90
58519;DHT22;44310;48.106;12.008;2023-06-26T14:24:01;22.60;67.20
58519;DHT22;44310;48.106;12.008;2023-06-26T14:26:29;22.60;66.90
58519;DHT22;44310;48.106;12.008;2023-06-26T14:28:56;22.60;66.90
58519;DHT22;44310;48.106;12.008;2023-06-26T14:31:23;22.50;66.40
58519;DHT22;44310;48.106;12.008;2023-06-26T14:33:51;22.50;68.90
58519;DHT22;44310;48.106;12.008;2023-06-26T14:36:18;22.60;72.40
58519;DHT22;44310;48.106;12.008;2023-06-26T14:38:46;22.60;71.30
58519;DHT22;44310;48.106;12.008;2023-06-26T14:41:13;22.30;69.00
58519;DHT22;44310;48.106;12.008;2023-06-26T14:43:40;22.50;68.30
58519;DHT22;44310;48.106;12.008;2023-06-26T14:46:08;22.50;68.50
58519;DHT22;44310;48.106;12.008;2023-06-26T14:48:36;22.40;68.10
58519;DHT22;44310;48.106;12.008;2023-06-26T14:51:03;22.50;68.60
58519;DHT22;44310;48.106;12.008;2023-06-26T14:53:30;22.50;70.20
58519;DHT22;44310;48.106;12.008;2023-06-26T14:55:57;22.50;70.00
58519;DHT22;44310;48.106;12.008;2023-06-26T14:58:24;22.50;70.10
58519;DHT22;44310;48.106;12.008;2023-06-26T15:00:51;22.50;72.40
58519;DHT22;44310;48.106;12.008;2023-06-26T15:03:19;22.50;72.20
58519;DHT22;44310;48.106;12.008;2023-06-26T15:05:46;22.40;69.30
58519;DHT22;44310;48.106;12.008;2023-06-26T15:08:13;22.40;68.80
58519;DHT22;44310;48.106;12.008;2023-06-26T15:10:40;22.40;67.50
58519;DHT22;44310;48.106;12.008;2023-06-26T15:13:08;22.40;68.70
58519;DHT22;44310;48.106;12.008;2023-06-26T15:15:35;22.40;68.40
58519;DHT22;44310;48.106;12.008;2023-06-26T15:18:03;22.40;70.10
58519;DHT22;44310;48.106;12.008;2023-06-26T15:20:31;22.40;72.60
58519;DHT22;44310;48.106;12.008;2023-06-26T15:22:59;22.40;71.80
58519;DHT22;44310;48.106;12.008;2023-06-26T15:25:26;22.40;69.80
58519;DHT22;44310;48.106;12.008;2023-06-26T15:27:55;22.40;70.40
58519;DHT22;44310;48.106;12.008;2023-06-26T15:30:22;22.40;72.00
58519;DHT22;44310;48.106;12.008;2023-06-26T15:32:49;22.40;73.40
58519;DHT22;44310;48.106;12.008;2023-06-26T15:35:16;22.60;74.70